Time;durP1;ratioP1;P1;durP2;ratioP2;P2;SDS_P1;SDS_P2;PMS_P1;PMS_P2;Temp;Humidity;BMP_temperature;BMP_pressure;BME280_temperature;BME280_humidity;BME280_pressure;Samples;Min_cycle;Max_cycle;Signal;HPM_P1;HPM_P2
2023/09/24 00:00:58;;;;;;;26.75;15.98;;;11.50;99.90;;;;;;4998202;28;20051;-74
2023/09/24 00:03:24;;;;;;;26.63;16.35;;;11.40;99.90;;;;;;4986782;28;20447;-74
2023/09/24 00:05:51;;;;;;;37.50;19.20;;;11.30;99.90;;;;;;5001593;28;20074;-74
2023/09/24 00:08:18;;;;;;;78.30;23.65;;;11.50;99.90;;;;;;5004076;28;20092;-74
2023/09/24 00:10:52;;;;;;;95.80;25.05;;;11.40;99.90;;;;;;5003385;28;20042;-73
2023/09/24 00:13:19;;;;;;;73.80;24.92;;;11.50;99.90;;;;;;5004206;28;20041;-74
2023/09/24 00:15:45;;;;;;;52.63;21.77;;;11.30;99.90;;;;;;5002898;28;20060;-73
2023/09/24 00:18:11;;;;;;;45.35;21.15;;;11.40;99.90;;;;;;5003013;28;20038;-73
2023/09/24 00:20:37;;;;;;;45.10;22.45;;;11.40;99.90;;;;;;5004824;28;20046;-73
2023/09/24 00:23:03;;;;;;;38.40;20.38;;;11.30;99.90;;;;;;4968056;28;20054;-73
2023/09/24 00:25:28;;;;;;;35.55;18.40;;;11.30;99.90;;;;;;4986715;28;20042;-74
2023/09/24 00:27:56;;;;;;;27.65;16.08;;;11.40;99.90;;;;;;4974602;28;20097;-73
2023/09/24 00:30:22;;;;;;;25.30;15.38;;;11.30;99.90;;;;;;5001684;28;20068;-73
2023/09/24 00:32:48;;;;;;;29.13;15.82;;;11.40;99.90;;;;;;4988491;28;20049;-74
2023/09/24 00:35:15;;;;;;;29.35;16.27;;;11.40;99.90;;;;;;4983513;28;20057;-74
2023/09/24 00:37:41;;;;;;;43.22;19.42;;;11.30;99.90;;;;;;4987155;28;20107;-74
2023/09/24 00:40:10;;;;;;;27.13;14.48;;;11.30;99.90;;;;;;4987840;28;20042;-74
2023/09/24 00:42:39;;;;;;;25.25;15.32;;;11.40;99.90;;;;;;4990212;28;20061;-73
2023/09/24 00:45:10;;;;;;;31.95;16.48;;;11.30;99.90;;;;;;4988435;28;20067;-74
2023/09/24 00:47:43;;;;;;;29.38;14.48;;;11.30;99.90;;;;;;4968917;28;20109;-74
2023/09/24 00:50:10;;;;;;;;;;;11.30;99.90;;;;;;4999213;28;20121;-73
2023/09/24 00:52:36;;;;;;;21.50;13.88;;;11.30;99.90;;;;;;5006399;28;19917;-74
2023/09/24 00:55:06;;;;;;;41.17;19.35;;;11.30;99.90;;;;;;4970827;28;20038;-73
2023/09/24 00:57:33;;;;;;;31.45;17.63;;;11.30;99.90;;;;;;4983929;28;20038;-74
2023/09/24 01:00:00;;;;;;;38.65;18.60;;;11.20;99.90;;;;;;5003718;28;20042;-73
2023/09/24 01:02:27;;;;;;;48.40;20.08;;;11.20;99.90;;;;;;4981268;28;20125;-74
2023/09/24 01:04:53;;;;;;;36.67;17.25;;;11.20;99.90;;;;;;4983735;28;20088;-74
2023/09/24 01:07:23;;;;;;;31.58;17.13;;;11.20;99.90;;;;;;4979568;28;20034;-74
2023/09/24 01:09:49;;;;;;;40.35;20.58;;;11.10;99.90;;;;;;4973088;28;20046;-74
2023/09/24 01:12:22;;;;;;;36.92;20.40;;;11.20;99.90;;;;;;5000664;28;20060;-74
2023/09/24 01:14:48;;;;;;;43.22;21.83;;;11.10;99.90;;;;;;5000867;28;20052;-74
2023/09/24 01:17:15;;;;;;;48.47;23.15;;;11.00;99.90;;;;;;4969708;28;20038;-74
2023/09/24 01:19:40;;;;;;;41.58;19.33;;;11.00;99.90;;;;;;4984186;28;20042;-74
2023/09/24 01:22:07;;;;;;;35.80;17.38;;;11.10;99.90;;;;;;4986248;28;20129;-74
2023/09/24 01:24:32;;;;;;;42.55;20.27;;;11.00;99.90;;;;;;4986917;28;20049;-74
2023/09/24 01:26:58;;;;;;;33.65;19.38;;;11.00;99.90;;;;;;5000528;28;20042;-73
2023/09/24 01:29:24;;;;;;;86.25;28.65;;;11.00;99.90;;;;;;4985794;28;20096;-74
2023/09/24 01:31:51;;;;;;;58.58;25.38;;;10.90;99.90;;;;;;4987626;28;20069;-74
2023/09/24 01:34:18;;;;;;;109.90;30.02;;;11.00;99.90;;;;;;4982263;28;20141;-74
2023/09/24 01:36:44;;;;;;;176.65;35.17;;;11.00;99.90;;;;;;4985760;28;20053;-74
2023/09/24 01:39:09;;;;;;;136.48;28.67;;;11.00;99.90;;;;;;4984503;28;20401;-74
2023/09/24 01:41:35;;;;;;;221.52;39.70;;;11.00;99.90;;;;;;4982563;28;20038;-74
2023/09/24 01:44:02;;;;;;;176.35;31.77;;;11.10;99.90;;;;;;4967762;28;20621;-74
2023/09/24 01:46:27;;;;;;;165.25;33.13;;;11.00;99.90;;;;;;4985227;28;20041;-74
2023/09/24 01:48:54;;;;;;;121.07;30.75;;;11.00;99.90;;;;;;5000038;28;20397;-74
2023/09/24 01:51:20;;;;;;;137.68;33.90;;;11.10;99.90;;;;;;4969985;28;20038;-74
2023/09/24 01:53:47;;;;;;;204.30;38.47;;;11.00;99.90;;;;;;4986091;28;20041;-74
2023/09/24 01:56:14;;;;;;;159.13;33.00;;;11.10;99.90;;;;;;4985472;28;20070;-73
2023/09/24 01:58:39;;;;;;;114.95;30.20;;;11.20;99.90;;;;;;4983408;28;20034;-74
2023/09/24 02:01:07;;;;;;;107.90;30.55;;;11.10;99.90;;;;;;4982985;28;20528;-74
2023/09/24 02:03:33;;;;;;;164.00;36.35;;;11.20;99.90;;;;;;5002705;28;20501;-74
2023/09/24 02:06:00;;;;;;;128.90;34.38;;;11.10;99.90;;;;;;4997641;28;20042;-74
2023/09/24 02:08:25;;;;;;;142.88;29.73;;;11.10;99.90;;;;;;5000706;28;20034;-74
2023/09/24 02:10:52;;;;;;;102.72;27.35;;;11.20;99.90;;;;;;4987292;28;20053;-74
2023/09/24 02:13:20;;;;;;;141.70;29.92;;;11.20;99.90;;;;;;4981741;28;20053;-74
2023/09/24 02:15:46;;;;;;;106.03;28.00;;;11.20;99.90;;;;;;4983380;28;20105;-74
2023/09/24 02:18:12;;;;;;;113.50;30.00;;;11.20;99.90;;;;;;4989189;28;20037;-74
2023/09/24 02:20:41;;;;;;;93.43;26.73;;;11.20;99.90;;;;;;4986536;28;20547;-74
2023/09/24 02:23:08;;;;;;;70.65;25.55;;;11.10;99.90;;;;;;4979602;28;20137;-74
2023/09/24 02:25:37;;;;;;;89.25;27.35;;;11.00;99.90;;;;;;4966376;28;20025;-74
2023/09/24 02:28:04;;;;;;;77.00;25.35;;;11.10;99.90;;;;;;4987964;28;20042;-74
2023/09/24 02:30:34;;;;;;;74.38;24.80;;;11.10;99.90;;;;;;4983539;28;20038;-74
2023/09/24 02:33:02;;;;;;;71.03;24.67;;;11.10;99.90;;;;;;5000142;28;20049;-74
2023/09/24 02:35:28;;;;;;;68.50;25.13;;;11.10;99.90;;;;;;4984850;28;20050;-74
2023/09/24 02:37:53;;;;;;;55.22;23.00;;;11.00;99.90;;;;;;4982621;28;20042;-74
2023/09/24 02:40:26;;;;;;;72.13;24.05;;;11.00;99.90;;;;;;4968463;28;20046;-74
2023/09/24 02:42:53;;;;;;;;;;;11.00;99.90;;;;;;4986428;28;20044;-74
2023/09/24 02:45:19;;;;;;;64.32;24.13;;;11.00;99.90;;;;;;4999329;28;19917;-74
2023/09/24 02:47:46;;;;;;;55.65;21.67;;;10.90;99.90;;;;;;5000172;28;20087;-74
2023/09/24 02:50:14;;;;;;;64.05;24.58;;;11.00;99.90;;;;;;4984461;28;20081;-74
2023/09/24 02:52:42;;;;;;;44.60;21.30;;;10.90;99.90;;;;;;4984744;28;20031;-74
2023/09/24 02:55:13;;;;;;;59.83;23.02;;;10.90;99.90;;;;;;5000417;28;20497;-74
2023/09/24 02:57:39;;;;;;;64.20;24.33;;;10.80;99.90;;;;;;4999529;28;20033;-74
2023/09/24 03:02:52;;;;;;;56.55;23.83;;;10.80;99.90;;;;;;5000154;28;20046;-74
2023/09/24 03:05:24;;;;;;;39.05;18.90;;;10.80;99.90;;;;;;4984657;28;20485;-74
2023/09/24 03:07:54;;;;;;;53.47;23.17;;;10.70;99.90;;;;;;4983598;28;20030;-74
2023/09/24 03:10:21;;;;;;;38.90;19.15;;;10.70;99.90;;;;;;4985763;28;20042;-74
2023/09/24 03:12:48;;;;;;;32.47;17.45;;;10.70;99.90;;;;;;4995891;28;20045;-74
2023/09/24 03:15:14;;;;;;;41.45;19.60;;;10.70;99.90;;;;;;4981889;28;20046;-74
2023/09/24 03:17:41;;;;;;;38.33;19.85;;;10.60;99.90;;;;;;4998614;28;20038;-74
2023/09/24 03:20:15;;;;;;;42.38;19.55;;;10.60;99.90;;;;;;4982163;28;20084;-74
2023/09/24 03:23:02;;;;;;;54.15;24.73;;;10.70;99.90;;;;;;4981943;28;20115;-74
2023/09/24 03:25:29;;;;;;;51.00;24.05;;;10.60;99.90;;;;;;4981958;28;20030;-74
2023/09/24 03:28:00;;;;;;;51.03;21.98;;;10.60;99.90;;;;;;4965032;28;20509;-74
2023/09/24 03:30:26;;;;;;;42.38;22.63;;;10.60;99.90;;;;;;4985808;28;20100;-74
2023/09/24 03:32:53;;;;;;;53.40;24.15;;;10.50;99.90;;;;;;4983833;28;20188;-74
2023/09/24 03:35:23;;;;;;;31.25;19.00;;;10.50;99.90;;;;;;5004277;28;20046;-74
2023/09/24 03:37:48;;;;;;;29.25;17.95;;;10.50;99.90;;;;;;5004395;28;20120;-74
2023/09/24 03:40:16;;;;;;;35.28;19.70;;;10.50;99.90;;;;;;4990729;28;20176;-74
2023/09/24 03:42:42;;;;;;;24.23;17.65;;;10.50;99.90;;;;;;5005027;28;20053;-74
2023/09/24 03:45:12;;;;;;;38.10;20.05;;;10.60;99.90;;;;;;4987632;28;20535;-74
2023/09/24 03:47:38;;;;;;;28.63;17.98;;;10.50;99.90;;;;;;5004976;28;20045;-73
2023/09/24 03:50:05;;;;;;;26.48;17.58;;;10.60;99.90;;;;;;4968703;28;20046;-74
2023/09/24 03:52:31;;;;;;;25.98;17.50;;;10.50;99.90;;;;;;4972841;28;20460;-74
2023/09/24 03:54:59;;;;;;;28.55;17.38;;;10.50;99.90;;;;;;4988993;28;20038;-74
2023/09/24 03:57:27;;;;;;;28.80;17.58;;;10.50;99.90;;;;;;4988236;28;20495;-75
2023/09/24 03:59:59;;;;;;;28.85;16.70;;;10.50;99.90;;;;;;5003993;28;20042;-74
2023/09/24 04:02:28;;;;;;;23.85;16.35;;;10.40;99.90;;;;;;4971752;28;20500;-74
2023/09/24 04:04:54;;;;;;;27.50;17.65;;;10.40;99.90;;;;;;5003409;28;20029;-74
2023/09/24 04:07:20;;;;;;;29.20;17.80;;;10.40;99.90;;;;;;4969941;28;20041;-74
2023/09/24 04:09:49;;;;;;;30.50;19.58;;;10.40;99.90;;;;;;4984722;28;20038;-74
2023/09/24 04:12:15;;;;;;;36.88;19.88;;;10.40;99.90;;;;;;4986747;28;20053;-74
2023/09/24 04:14:41;;;;;;;23.02;16.65;;;10.40;99.90;;;;;;4995083;28;20042;-74
2023/09/24 04:17:06;;;;;;;40.03;20.35;;;10.40;99.90;;;;;;5000090;28;20053;-75
2023/09/24 04:19:33;;;;;;;29.70;18.40;;;10.30;99.90;;;;;;4983667;28;20061;-74
2023/09/24 04:21:59;;;;;;;41.90;21.23;;;10.30;99.90;;;;;;5002518;28;20077;-74
2023/09/24 04:24:25;;;;;;;39.58;21.20;;;10.30;99.90;;;;;;4999921;28;20117;-74
2023/09/24 04:26:54;;;;;;;34.75;20.75;;;10.20;99.90;;;;;;5003122;28;20117;-74
2023/09/24 04:29:20;;;;;;;49.47;23.98;;;10.30;99.90;;;;;;5000942;28;20053;-74
2023/09/24 04:31:46;;;;;;;31.75;19.05;;;10.30;99.90;;;;;;4981796;28;20116;-74
2023/09/24 04:34:13;;;;;;;29.33;19.65;;;10.20;99.90;;;;;;5001869;28;20125;-74
2023/09/24 04:36:39;;;;;;;50.90;23.10;;;10.20;99.90;;;;;;5004039;28;20042;-74
2023/09/24 04:39:07;;;;;;;45.08;22.50;;;10.10;99.90;;;;;;5004973;28;20061;-74
2023/09/24 04:41:36;;;;;;;34.72;18.45;;;10.00;99.90;;;;;;4974317;28;20455;-74
2023/09/24 04:44:02;;;;;;;33.13;18.40;;;10.00;99.90;;;;;;4989230;28;20038;-74
2023/09/24 04:46:28;;;;;;;33.55;20.00;;;9.90;99.90;;;;;;4987334;28;20070;-74
2023/09/24 04:48:54;;;;;;;42.15;22.08;;;9.80;99.90;;;;;;4984728;28;20121;-74
2023/09/24 04:51:19;;;;;;;31.02;19.20;;;9.80;99.90;;;;;;4971933;28;20077;-74
2023/09/24 04:53:45;;;;;;;35.55;21.30;;;9.80;99.90;;;;;;4984633;28;20049;-74
2023/09/24 04:56:11;;;;;;;39.70;21.10;;;9.70;99.90;;;;;;5000275;28;20038;-74
2023/09/24 04:58:36;;;;;;;40.55;20.70;;;9.70;99.90;;;;;;4967758;28;20133;-74
2023/09/24 05:01:03;;;;;;;32.85;20.27;;;9.70;99.90;;;;;;4998850;28;20093;-74
2023/09/24 05:03:30;;;;;;;39.15;21.73;;;9.60;99.90;;;;;;5003980;28;20084;-74
2023/09/24 05:05:56;;;;;;;34.45;19.65;;;9.50;99.90;;;;;;5002067;28;20056;-74
2023/09/24 05:08:21;;;;;;;39.90;21.65;;;9.50;99.90;;;;;;4988792;28;20038;-74
2023/09/24 05:10:49;;;;;;;43.22;24.10;;;9.50;99.90;;;;;;5003655;28;20066;-74
2023/09/24 05:13:15;;;;;;;41.08;23.20;;;9.50;99.90;;;;;;4985383;28;20093;-74
2023/09/24 05:15:40;;;;;;;47.15;24.33;;;9.40;99.90;;;;;;4987487;28;20077;-74
2023/09/24 05:18:06;;;;;;;33.03;20.08;;;9.40;99.90;;;;;;4985808;28;20126;-74
2023/09/24 05:20:32;;;;;;;45.08;23.63;;;9.30;99.90;;;;;;4985862;28;20038;-74
2023/09/24 05:22:58;;;;;;;54.63;26.73;;;9.40;99.90;;;;;;4970974;28;20047;-74
2023/09/24 05:25:23;;;;;;;56.72;26.90;;;9.30;99.90;;;;;;4983399;28;20034;-74
2023/09/24 05:27:49;;;;;;;41.95;24.35;;;9.30;99.90;;;;;;4987000;28;20042;-74
2023/09/24 05:30:15;;;;;;;35.60;23.83;;;9.30;99.90;;;;;;5002316;28;20127;-74
2023/09/24 05:32:40;;;;;;;56.97;27.58;;;9.30;99.90;;;;;;4971029;28;20057;-74
2023/09/24 05:35:06;;;;;;;47.13;25.52;;;9.30;99.90;;;;;;4971882;28;20072;-74
2023/09/24 05:37:32;;;;;;;38.85;24.00;;;9.20;99.90;;;;;;4986657;28;20044;-74
2023/09/24 05:39:58;;;;;;;38.13;22.70;;;9.40;99.90;;;;;;4985920;28;20041;-74
2023/09/24 05:42:24;;;;;;;51.67;28.13;;;9.40;99.90;;;;;;4984217;28;20038;-74
2023/09/24 05:44:50;;;;;;;46.78;27.13;;;9.40;99.90;;;;;;4988657;28;20121;-74
2023/09/24 05:47:15;;;;;;;50.00;27.17;;;9.40;99.90;;;;;;4984733;28;21491;-74
2023/09/24 05:49:41;;;;;;;45.35;27.35;;;9.50;99.90;;;;;;4971325;28;20091;-74
2023/09/24 05:52:07;;;;;;;47.00;27.17;;;9.40;99.90;;;;;;4987051;28;20038;-74
2023/09/24 05:54:33;;;;;;;46.67;28.17;;;9.50;99.90;;;;;;5000149;28;20046;-74
2023/09/24 05:56:58;;;;;;;49.88;28.42;;;9.50;99.90;;;;;;5003163;28;20496;-74
2023/09/24 05:59:24;;;;;;;60.60;30.08;;;9.50;99.90;;;;;;4968565;28;20042;-74
2023/09/24 06:01:50;;;;;;;49.97;29.02;;;9.50;99.90;;;;;;4984839;28;20038;-74
2023/09/24 06:04:16;;;;;;;43.33;25.30;;;9.50;99.90;;;;;;4987037;28;20096;-75
2023/09/24 06:06:42;;;;;;;60.55;32.30;;;9.50;99.90;;;;;;4986117;28;20042;-74
2023/09/24 06:09:09;;;;;;;53.80;29.48;;;9.60;99.90;;;;;;4983790;28;20084;-74
2023/09/24 06:11:38;;;;;;;48.25;26.85;;;9.60;99.90;;;;;;5000855;28;20184;-74
2023/09/24 06:14:08;;;;;;;48.58;27.48;;;9.60;99.90;;;;;;4980266;28;20350;-74
2023/09/24 06:16:38;;;;;;;44.95;27.92;;;9.60;99.90;;;;;;4997997;28;20042;-74
2023/09/24 06:19:04;;;;;;;41.45;26.77;;;9.70;99.90;;;;;;4982232;28;20038;-74
2023/09/24 06:21:30;;;;;;;48.92;29.13;;;9.70;99.90;;;;;;4951707;28;20045;-74
2023/09/24 06:23:57;;;;;;;41.38;25.45;;;9.70;99.90;;;;;;4967560;28;20474;-74
2023/09/24 06:26:26;;;;;;;42.42;27.00;;;9.80;99.90;;;;;;4999974;28;20382;-74
2023/09/24 06:28:51;;;;;;;45.80;27.42;;;9.80;99.90;;;;;;4985807;28;20038;-74
2023/09/24 06:31:17;;;;;;;38.55;24.55;;;9.80;99.90;;;;;;5002629;28;20042;-74
2023/09/24 06:33:43;;;;;;;48.08;27.85;;;9.90;99.90;;;;;;4986409;28;20045;-74
2023/09/24 06:36:09;;;;;;;39.90;25.10;;;9.80;99.90;;;;;;4987803;28;20540;-74
2023/09/24 06:38:36;;;;;;;44.08;25.63;;;10.00;99.90;;;;;;4986669;28;20068;-74
2023/09/24 06:41:03;;;;;;;44.35;27.05;;;9.90;99.90;;;;;;4986515;28;20085;-74
2023/09/24 06:43:30;;;;;;;37.08;24.08;;;10.00;99.90;;;;;;5002374;28;20409;-74
2023/09/24 06:45:56;;;;;;;38.67;26.42;;;10.00;99.90;;;;;;4982755;28;20039;-74
2023/09/24 06:48:22;;;;;;;38.20;24.88;;;10.00;99.90;;;;;;4982904;28;20042;-74
2023/09/24 06:50:49;;;;;;;42.53;26.58;;;10.10;99.90;;;;;;5003006;28;20049;-74
2023/09/24 06:53:15;;;;;;;36.42;24.38;;;10.10;99.90;;;;;;4985208;28;20125;-74
2023/09/24 06:55:41;;;;;;;36.58;24.20;;;10.10;99.90;;;;;;5003092;28;20108;-74
2023/09/24 06:58:07;;;;;;;37.75;25.08;;;10.20;99.90;;;;;;5000487;28;20537;-74
2023/09/24 07:00:32;;;;;;;41.05;26.55;;;10.30;99.90;;;;;;4965499;28;20052;-74
2023/09/24 07:02:58;;;;;;;36.78;24.98;;;10.30;99.90;;;;;;4995145;28;20521;-74
2023/09/24 07:05:24;;;;;;;37.13;24.23;;;10.40;99.90;;;;;;5001751;28;20504;-74
2023/09/24 07:07:51;;;;;;;40.30;25.95;;;10.30;99.90;;;;;;5000151;28;20101;-74
2023/09/24 07:10:18;;;;;;;43.22;26.60;;;10.40;99.90;;;;;;4967626;28;20053;-75
2023/09/24 07:12:44;;;;;;;38.08;23.25;;;10.50;99.90;;;;;;4988140;28;20489;-75
2023/09/24 07:15:11;;;;;;;32.30;22.10;;;10.50;99.90;;;;;;4976056;28;20034;-75
2023/09/24 07:17:37;;;;;;;28.63;20.77;;;10.50;99.90;;;;;;4986817;28;20073;-75
2023/09/24 07:20:04;;;;;;;32.78;20.42;;;10.50;99.90;;;;;;4986026;28;20502;-75
2023/09/24 07:22:30;;;;;;;29.50;21.95;;;10.60;99.90;;;;;;4957417;28;20564;-75
2023/09/24 07:24:56;;;;;;;29.65;19.80;;;10.60;99.90;;;;;;4986698;28;20042;-75
2023/09/24 07:27:24;;;;;;;29.63;22.05;;;10.60;99.90;;;;;;4973842;28;20126;-78
2023/09/24 07:29:50;;;;;;;28.90;18.38;;;10.80;99.90;;;;;;5003341;28;20073;-75
2023/09/24 07:32:16;;;;;;;38.40;21.77;;;10.70;99.90;;;;;;4986966;28;20127;-74
2023/09/24 07:34:42;;;;;;;26.02;19.25;;;10.90;99.90;;;;;;4970143;28;20113;-75
2023/09/24 07:37:08;;;;;;;33.53;22.42;;;10.90;99.90;;;;;;5003998;28;20038;-74
2023/09/24 07:39:37;;;;;;;36.25;23.15;;;11.00;99.90;;;;;;5004224;28;20125;-74
2023/09/24 07:42:03;;;;;;;29.58;20.83;;;11.10;99.90;;;;;;4989689;28;20048;-74
2023/09/24 07:44:28;;;;;;;29.25;19.90;;;11.10;99.90;;;;;;4987439;28;20129;-74
2023/09/24 07:46:54;;;;;;;33.00;21.48;;;11.10;99.90;;;;;;5004969;28;20120;-75
2023/09/24 07:49:20;;;;;;;33.90;22.25;;;11.10;99.90;;;;;;4986113;28;20038;-74
2023/09/24 07:51:46;;;;;;;33.33;22.77;;;11.20;99.90;;;;;;5003979;28;20049;-74
2023/09/24 07:54:13;;;;;;;35.38;23.20;;;11.30;99.90;;;;;;5001934;28;20061;-74
2023/09/24 07:56:41;;;;;;;46.13;26.05;;;11.30;99.90;;;;;;4976780;28;20045;-74
2023/09/24 07:59:07;;;;;;;34.20;24.67;;;11.40;99.90;;;;;;4992204;28;20045;-74
2023/09/24 08:01:33;;;;;;;28.58;19.70;;;11.40;99.90;;;;;;4980454;28;20045;-74
2023/09/24 08:03:59;;;;;;;30.35;21.50;;;11.50;99.90;;;;;;4991483;28;20418;-74
2023/09/24 08:06:28;;;;;;;22.83;16.92;;;11.60;99.90;;;;;;4997992;28;20163;-74
2023/09/24 08:08:54;;;;;;;26.35;20.60;;;11.70;99.90;;;;;;5009867;28;20041;-75
2023/09/24 08:11:20;;;;;;;27.40;18.58;;;11.80;99.90;;;;;;5008213;28;20049;-74
2023/09/24 08:13:46;;;;;;;28.98;21.52;;;12.00;99.90;;;;;;5028132;28;20073;-74
2023/09/24 08:16:13;;;;;;;22.20;16.65;;;12.10;99.90;;;;;;5019754;28;20026;-73
2023/09/24 08:18:38;;;;;;;24.75;17.02;;;12.30;99.90;;;;;;5011153;28;20037;-74
2023/09/24 08:21:04;;;;;;;23.75;18.33;;;12.40;99.90;;;;;;5005520;28;20048;-74
2023/09/24 08:23:31;;;;;;;20.27;14.70;;;12.60;99.90;;;;;;5007881;28;20042;-75
2023/09/24 08:25:57;;;;;;;20.05;15.73;;;12.80;99.90;;;;;;5022490;28;20122;-73
2023/09/24 08:28:22;;;;;;;18.80;15.05;;;12.90;99.90;;;;;;5001867;28;20066;-73
2023/09/24 08:30:48;;;;;;;16.83;13.52;;;13.00;99.90;;;;;;4983820;28;20096;-73
2023/09/24 08:33:14;;;;;;;17.20;14.00;;;13.10;99.90;;;;;;5006493;28;20504;-73
2023/09/24 08:35:40;;;;;;;14.23;11.82;;;13.30;99.90;;;;;;5003394;28;20121;-74
2023/09/24 08:38:06;;;;;;;16.52;12.63;;;13.30;99.90;;;;;;4982869;28;20034;-74
2023/09/24 08:40:32;;;;;;;15.55;12.52;;;13.50;99.90;;;;;;4989052;28;20449;-74
2023/09/24 08:42:58;;;;;;;13.23;11.90;;;13.60;99.90;;;;;;4979868;28;20121;-74
2023/09/24 08:45:28;;;;;;;18.90;12.48;;;13.70;99.90;;;;;;5006170;28;20034;-74
2023/09/24 08:47:54;;;;;;;17.52;12.27;;;13.80;99.90;;;;;;5001115;28;20066;-74
2023/09/24 08:50:20;;;;;;;18.30;12.45;;;13.90;99.90;;;;;;5004954;28;20041;-74
2023/09/24 08:52:46;;;;;;;17.48;11.70;;;14.10;99.90;;;;;;4993293;28;20080;-74
2023/09/24 08:55:13;;;;;;;15.57;11.07;;;14.20;99.90;;;;;;4990170;28;20085;-75
2023/09/24 08:57:41;;;;;;;16.05;9.93;;;14.40;99.90;;;;;;4983449;28;20038;-74
2023/09/24 09:00:12;;;;;;;12.38;8.82;;;14.40;99.90;;;;;;5008935;28;20051;-75
2023/09/24 09:02:43;;;;;;;13.90;8.52;;;14.50;99.90;;;;;;4983450;28;20045;-74
2023/09/24 09:05:20;;;;;;;11.48;8.75;;;14.40;99.90;;;;;;4983888;28;20425;-75
2023/09/24 09:07:58;;;;;;;11.02;8.15;;;14.50;99.90;;;;;;4998289;28;20493;-74
2023/09/24 09:10:26;;;;;;;10.60;7.72;;;14.50;99.90;;;;;;4958807;28;20061;-75
2023/09/24 09:13:04;;;;;;;16.95;7.70;;;14.60;99.90;;;;;;4978688;28;20049;-74
2023/09/24 09:15:29;;;;;;;12.32;6.70;;;14.70;99.90;;;;;;4985636;28;20038;-75
2023/09/24 09:17:55;;;;;;;10.80;7.05;;;14.90;99.90;;;;;;4991454;28;20042;-74
2023/09/24 09:20:41;;;;;;;9.57;7.53;;;15.00;99.90;;;;;;5007130;28;20048;-74
2023/09/24 09:23:15;;;;;;;9.40;6.40;;;15.10;99.90;;;;;;5003375;28;20050;-74
2023/09/24 09:25:54;;;;;;;16.35;6.95;;;15.20;99.90;;;;;;4965474;28;20088;-75
2023/09/24 09:28:24;;;;;;;9.10;6.10;;;15.40;99.90;;;;;;5007083;28;20877;-74
2023/09/24 09:31:10;;;;;;;11.20;5.78;;;15.50;99.90;;;;;;5003435;28;20053;-75
2023/09/24 09:33:43;;;;;;;10.35;5.63;;;15.70;99.90;;;;;;4986887;28;20117;-75
2023/09/24 09:36:30;;;;;;;10.80;5.70;;;15.70;99.90;;;;;;4993541;28;20471;-75
2023/09/24 09:39:00;;;;;;;6.35;3.70;;;15.80;99.90;;;;;;4985121;28;20133;-74
2023/09/24 09:41:26;;;;;;;9.50;4.25;;;15.70;99.90;;;;;;4968940;28;20040;-74
2023/09/24 09:43:52;;;;;;;6.63;3.42;;;15.50;99.90;;;;;;5005043;28;20068;-74
2023/09/24 09:46:20;;;;;;;8.48;3.90;;;15.50;99.90;;;;;;4986200;28;20125;-74
2023/09/24 09:48:56;;;;;;;7.82;4.05;;;15.50;99.90;;;;;;5008628;28;20053;-75
2023/09/24 09:51:22;;;;;;;6.10;3.42;;;15.50;99.90;;;;;;4989369;28;20060;-74
2023/09/24 09:53:50;;;;;;;5.22;3.28;;;15.40;99.90;;;;;;4985555;28;20044;-74
2023/09/24 09:56:17;;;;;;;7.50;3.22;;;15.50;99.90;;;;;;4992383;28;20420;-74
2023/09/24 09:58:47;;;;;;;6.15;3.10;;;15.60;99.90;;;;;;4980886;28;20047;-74
2023/09/24 10:01:13;;;;;;;6.72;3.72;;;15.50;99.90;;;;;;4999798;28;20046;-75
2023/09/24 10:03:42;;;;;;;6.07;2.97;;;15.40;99.90;;;;;;4975087;28;20045;-74
2023/09/24 10:06:10;;;;;;;8.32;3.80;;;15.50;99.90;;;;;;4987834;28;20034;-74
2023/09/24 10:08:40;;;;;;;8.18;3.50;;;15.60;99.90;;;;;;4970531;28;20033;-75
2023/09/24 10:11:08;;;;;;;6.28;3.03;;;15.80;99.90;;;;;;5008936;28;20058;-74
2023/09/24 10:13:45;;;;;;;6.88;3.65;;;15.90;99.90;;;;;;4983560;28;20100;-74
2023/09/24 10:16:32;;;;;;;8.77;3.60;;;16.00;99.90;;;;;;4980383;28;20034;-74
2023/09/24 10:19:06;;;;;;;8.35;3.60;;;16.00;99.90;;;;;;5003937;28;20049;-75
2023/09/24 10:21:40;;;;;;;7.35;4.20;;;16.00;99.90;;;;;;4990040;28;20033;-75
2023/09/24 10:24:12;;;;;;;7.28;3.70;;;16.20;99.90;;;;;;4982348;28;20042;-75
2023/09/24 10:26:51;;;;;;;5.68;3.40;;;16.20;99.90;;;;;;4984625;28;20042;-75
2023/09/24 10:29:18;;;;;;;7.03;3.50;;;16.30;99.90;;;;;;4985840;28;20485;-75
2023/09/24 10:32:06;;;;;;;10.00;3.85;;;16.30;99.90;;;;;;4983735;28;20100;-73
2023/09/24 10:34:50;;;;;;;10.60;4.05;;;16.30;99.90;;;;;;5007078;28;20440;-74
2023/09/24 10:37:19;;;;;;;9.27;3.50;;;16.40;99.90;;;;;;4998552;28;20073;-74
2023/09/24 10:40:09;;;;;;;4.72;3.03;;;16.50;99.90;;;;;;4991303;28;20049;-75
2023/09/24 10:42:43;;;;;;;6.40;3.08;;;16.60;99.90;;;;;;4984828;28;20132;-75
2023/09/24 10:45:12;;;;;;;8.45;3.22;;;16.40;99.90;;;;;;4975104;28;20389;-75
2023/09/24 10:47:38;;;;;;;6.85;2.60;;;16.40;99.90;;;;;;5000338;28;20129;-75
2023/09/24 10:50:05;;;;;;;7.88;2.78;;;16.40;99.90;;;;;;5005423;28;20034;-74
2023/09/24 10:52:54;;;;;;;7.97;3.38;;;16.50;99.90;;;;;;5003679;28;20125;-74
2023/09/24 10:55:36;;;;;;;7.75;2.58;;;16.60;99.90;;;;;;4976500;28;20037;-76
2023/09/24 10:58:22;;;;;;;6.80;2.40;;;16.70;99.90;;;;;;5000298;28;20053;-75
2023/09/24 11:00:51;;;;;;;6.28;2.50;;;16.80;99.90;;;;;;4964792;28;20050;-75
2023/09/24 11:03:17;;;;;;;5.50;2.42;;;16.90;99.90;;;;;;4988168;28;20041;-76
2023/09/24 11:05:47;;;;;;;5.95;2.33;;;17.00;99.90;;;;;;5005978;28;20392;-75
2023/09/24 11:08:15;;;;;;;5.32;2.13;;;17.10;99.90;;;;;;5002113;28;20038;-75
2023/09/24 11:10:40;;;;;;;6.18;2.28;;;17.10;99.90;;;;;;4986588;28;20121;-75
2023/09/24 11:13:07;;;;;;;5.93;2.50;;;17.20;99.90;;;;;;4964282;28;20117;-75
2023/09/24 11:15:35;;;;;;;5.18;2.40;;;17.20;99.90;;;;;;5006842;28;20041;-75
2023/09/24 11:18:01;;;;;;;5.55;2.22;;;17.30;99.90;;;;;;4981640;28;20046;-75
2023/09/24 11:20:34;;;;;;;5.05;2.10;;;17.40;99.90;;;;;;4980773;28;20038;-75
2023/09/24 11:23:09;;;;;;;5.40;2.08;;;17.40;99.90;;;;;;5000989;28;20062;-74
2023/09/24 11:25:36;;;;;;;6.05;2.25;;;17.50;99.90;;;;;;5007563;28;20038;-75
2023/09/24 11:28:03;;;;;;;9.98;1.80;;;17.60;99.90;;;;;;4986801;28;20038;-74
2023/09/24 11:30:40;;;;;;;5.60;2.22;;;17.60;99.90;;;;;;4996151;28;20042;-74
2023/09/24 11:33:23;;;;;;;5.00;2.45;;;17.70;99.90;;;;;;5003466;28;20057;-74
2023/09/24 11:35:53;;;;;;;9.00;2.60;;;17.70;99.90;;;;;;5001609;28;20160;-74
2023/09/24 11:38:32;;;;;;;3.58;1.90;;;17.80;99.90;;;;;;5006567;28;20041;-74
2023/09/24 11:41:13;;;;;;;4.47;2.10;;;17.90;99.90;;;;;;5009283;28;20041;-74
2023/09/24 11:43:40;;;;;;;5.15;2.13;;;18.00;99.90;;;;;;5010371;28;20041;-74
2023/09/24 11:46:25;;;;;;;6.78;2.25;;;18.10;99.90;;;;;;4973606;28;20521;-74
2023/09/24 11:48:52;;;;;;;3.50;1.80;;;18.20;99.90;;;;;;4995548;28;20057;-74
2023/09/24 11:51:20;;;;;;;4.55;2.20;;;18.40;99.90;;;;;;4969619;28;20049;-73
2023/09/24 11:53:46;;;;;;;4.35;2.03;;;18.40;99.90;;;;;;4992718;28;20095;-74
2023/09/24 11:56:12;;;;;;;4.82;2.10;;;18.40;99.90;;;;;;4991751;28;20041;-74
2023/09/24 11:58:38;;;;;;;6.15;2.00;;;18.40;99.90;;;;;;5008554;28;20060;-74
2023/09/24 12:01:05;;;;;;;7.22;2.00;;;18.40;99.90;;;;;;4993347;28;20038;-74
2023/09/24 12:03:32;;;;;;;6.57;2.58;;;18.50;99.90;;;;;;5010337;28;20045;-73
2023/09/24 12:05:58;;;;;;;4.25;2.40;;;18.50;99.90;;;;;;5009145;28;20049;-75
2023/09/24 12:08:23;;;;;;;3.75;2.00;;;18.50;99.90;;;;;;4960222;28;20038;-75
2023/09/24 12:10:52;;;;;;;5.22;2.15;;;18.60;99.90;;;;;;4991648;28;20081;-75
2023/09/24 12:13:18;;;;;;;4.10;1.90;;;18.60;99.90;;;;;;4997250;28;20116;-74
2023/09/24 12:15:44;;;;;;;3.58;1.80;;;18.60;99.90;;;;;;5005609;28;20467;-74
2023/09/24 12:18:11;;;;;;;5.78;2.35;;;18.60;99.90;;;;;;4992250;28;20092;-74
2023/09/24 12:20:39;;;;;;;6.68;2.40;;;18.60;99.90;;;;;;4987559;28;20041;-74
2023/09/24 12:23:08;;;;;;;4.25;2.25;;;18.70;99.90;;;;;;5009202;28;20089;-74
2023/09/24 12:25:38;;;;;;;3.38;2.20;;;18.90;99.90;;;;;;5004067;28;20060;-74
2023/09/24 12:28:08;;;;;;;6.38;2.00;;;19.00;99.90;;;;;;4999309;28;20038;-74
2023/09/24 12:30:34;;;;;;;4.18;2.00;;;19.20;99.90;;;;;;4989701;28;20073;-74
2023/09/24 12:33:00;;;;;;;6.30;2.35;;;19.20;99.90;;;;;;4987308;28;20117;-74
2023/09/24 12:35:26;;;;;;;2.95;1.85;;;19.20;99.90;;;;;;4978204;28;20101;-75
2023/09/24 12:37:54;;;;;;;7.18;2.15;;;19.20;99.90;;;;;;5003837;28;20049;-74
2023/09/24 12:40:22;;;;;;;4.22;2.20;;;19.20;99.90;;;;;;5003410;28;20049;-74